Time;durP1;ratioP1;P1;durP2;ratioP2;P2;SDS_P1;SDS_P2;PMS_P1;PMS_P2;Temp;Humidity;BMP_temperature;BMP_pressure;BME280_temperature;BME280_humidity;BME280_pressure;Samples;Min_cycle;Max_cycle;Signal;HPM_P1;HPM_P2
2021/01/01 00:01:47;;;;;;;61.07;39.37;;;;;;;0.86;86.01;98178.64;119310;1150;65123;-80
2021/01/01 00:04:14;;;;;;;66.27;40.87;;;;;;;0.84;85.72;98174.37;119101;1151;65136;-80
2021/01/01 00:06:46;;;;;;;63.10;42.47;;;;;;;0.84;85.82;98172.63;119135;1151;65121;-80
2021/01/01 00:09:13;;;;;;;64.77;44.27;;;;;;;0.86;86.05;98177.79;119084;1151;65200;-78
2021/01/01 00:11:40;;;;;;;58.20;38.67;;;;;;;0.86;85.38;98172.55;119220;1151;65217;-79
2021/01/01 00:14:07;;;;;;;61.27;44.33;;;;;;;0.87;85.48;98179.52;119257;1150;65114;-80
2021/01/01 00:16:34;;;;;;;66.27;40.90;;;;;;;0.83;85.70;98176.14;119263;1150;65130;-79
2021/01/01 00:19:01;;;;;;;61.10;38.30;;;;;;;0.77;85.83;98175.55;119325;1150;65098;-77
2021/01/01 00:21:31;;;;;;;62.93;39.60;;;;;;;0.68;85.82;98186.40;119030;1150;65162;-78
2021/01/01 00:23:59;;;;;;;61.73;37.57;;;;;;;0.61;85.34;98186.66;119225;1151;65120;-78
2021/01/01 00:26:26;;;;;;;59.20;39.60;;;;;;;0.56;85.74;98190.38;118987;1150;65121;-79
2021/01/01 00:28:53;;;;;;;58.73;37.33;;;;;;;0.55;85.46;98196.52;119255;1151;65111;-80
2021/01/01 00:31:21;;;;;;;60.63;37.10;;;;;;;0.49;85.48;98192.38;119216;1151;65433;-79
2021/01/01 00:33:49;;;;;;;62.37;38.80;;;;;;;0.49;86.01;98188.90;119100;1151;65175;-80
2021/01/01 00:36:17;;;;;;;65.17;40.67;;;;;;;0.49;86.06;98194.14;119227;1150;65136;-79
2021/01/01 00:38:50;;;;;;;67.27;40.07;;;;;;;0.48;85.65;98205.55;118880;1150;65226;-80
2021/01/01 00:41:34;;;;;;;63.53;37.43;;;;;;;0.48;86.14;98198.54;119263;1150;65484;-79
2021/01/01 00:44:02;;;;;;;62.30;38.10;;;;;;;0.52;85.88;98199.27;119257;1151;65104;-81
2021/01/01 00:46:31;;;;;;;58.43;37.60;;;;;;;0.51;85.90;98205.43;119202;1151;65207;-80
2021/01/01 00:48:58;;;;;;;;;;;;;;;0.50;86.14;98195.84;119240;1151;65098;-80
2021/01/01 00:51:25;;;;;;;65.03;38.67;;;;;;;0.51;86.03;98201.03;119256;1151;65127;-80
2021/01/01 00:53:52;;;;;;;66.97;40.20;;;;;;;0.51;85.67;98200.19;119230;1150;65116;-80
2021/01/01 00:56:22;;;;;;;61.93;37.77;;;;;;;0.50;86.15;98201.08;119085;1150;65137;-80
2021/01/01 00:58:50;;;;;;;;;;;;;;;0.51;85.74;98195.80;119138;1150;65143;-80
2021/01/01 01:01:18;;;;;;;71.93;41.03;;;;;;;0.54;86.25;98195.66;119293;1150;65185;-80
2021/01/01 01:03:45;;;;;;;62.47;38.13;;;;;;;0.59;86.41;98198.12;119275;1150;65129;-80
2021/01/01 01:06:11;;;;;;;59.43;39.23;;;;;;;0.62;86.35;98200.61;119263;1150;65101;-79
2021/01/01 01:08:38;;;;;;;49.87;34.23;;;;;;;0.61;86.21;98197.14;119255;1150;65072;-79
2021/01/01 01:11:04;;;;;;;56.40;34.05;;;;;;;0.60;86.02;98200.66;119243;1151;65286;-79
2021/01/01 01:13:31;;;;;;;56.17;35.50;;;;;;;0.61;85.95;98196.30;119257;1150;65141;-81
2021/01/01 01:15:57;;;;;;;52.40;33.20;;;;;;;0.62;86.10;98206.70;118807;1151;65132;-79
2021/01/01 01:18:23;;;;;;;49.47;31.17;;;;;;;0.60;85.56;98198.03;119136;1150;65143;-79
2021/01/01 01:20:50;;;;;;;48.63;30.68;;;;;;;0.64;85.88;98201.41;119078;1151;65113;-79
2021/01/01 01:23:18;;;;;;;51.30;32.80;;;;;;;0.66;86.13;98196.97;119248;1150;65529;-79
2021/01/01 01:25:46;;;;;;;50.33;33.17;;;;;;;0.67;86.27;98205.68;119251;1150;65054;-81
2021/01/01 01:28:13;;;;;;;64.10;37.35;;;;;;;0.73;86.40;98214.14;119059;1150;65121;-80
2021/01/01 01:30:40;;;;;;;64.50;38.13;;;;;;;0.78;85.87;98201.70;119053;1151;65220;-80
2021/01/01 01:33:08;;;;;;;63.83;37.73;;;;;;;0.78;85.94;98206.09;119244;1150;65124;-80
2021/01/01 01:35:36;;;;;;;67.30;40.60;;;;;;;0.76;85.60;98200.05;119059;1150;65541;-79
2021/01/01 01:38:03;;;;;;;55.93;34.80;;;;;;;0.76;85.83;98202.67;119278;1150;65105;-79
2021/01/01 01:40:30;;;;;;;52.33;33.50;;;;;;;0.73;85.43;98202.80;119117;1150;65191;-79
2021/01/01 01:42:56;;;;;;;55.87;33.83;;;;;;;0.72;85.80;98199.33;119099;1150;65231;-79
2021/01/01 01:45:23;;;;;;;58.80;36.13;;;;;;;0.69;85.60;98202.08;119062;1151;65241;-79
2021/01/01 01:47:50;;;;;;;58.80;34.40;;;;;;;0.68;85.88;98204.75;119034;1150;65136;-79
2021/01/01 01:50:17;;;;;;;53.20;32.47;;;;;;;0.64;85.90;98201.41;118687;1150;65147;-79
2021/01/01 01:52:45;;;;;;;49.23;30.80;;;;;;;0.62;85.49;98205.86;119018;1150;65127;-79
2021/01/01 01:55:12;;;;;;;57.57;35.30;;;;;;;0.67;85.83;98208.30;119146;1150;65101;-79
2021/01/01 01:57:39;;;;;;;54.65;34.85;;;;;;;0.68;85.96;98210.00;118865;1151;65237;-78
2021/01/01 02:01:07;;;;;;;52.80;33.40;;;;;;;0.71;85.91;98213.38;119265;1151;65226;-81
2021/01/01 02:03:02;;;;;;;62.43;38.23;;;;;;;0.74;85.92;98214.98;119151;1151;65127;-81
2021/01/01 02:05:28;;;;;;;58.33;35.17;;;;;;;0.79;86.19;98210.42;119251;1150;65152;-80
2021/01/01 02:07:55;;;;;;;62.10;35.33;;;;;;;0.75;85.84;98216.72;119261;1150;65115;-80
2021/01/01 02:10:22;;;;;;;58.40;36.50;;;;;;;0.66;85.22;98220.56;119265;1150;65034;-80
2021/01/01 02:12:49;;;;;;;53.60;34.00;;;;;;;0.63;85.78;98216.30;119215;1151;65108;-80
2021/01/01 02:15:16;;;;;;;57.13;33.90;;;;;;;0.65;85.64;98211.82;118995;1150;65192;-80
2021/01/01 02:17:42;;;;;;;56.53;33.70;;;;;;;0.64;85.92;98220.61;119042;1151;65182;-80
2021/01/01 02:20:11;;;;;;;58.90;34.67;;;;;;;0.66;85.51;98215.33;119079;1151;65054;-79
2021/01/01 02:22:41;;;;;;;57.60;35.40;;;;;;;0.64;85.50;98215.37;119260;1150;65095;-80
2021/01/01 02:25:10;;;;;;;65.77;37.53;;;;;;;0.65;85.89;98209.20;119274;1150;65313;-80
2021/01/01 02:27:37;;;;;;;60.63;35.73;;;;;;;0.61;85.41;98212.02;119227;1150;65031;-80
2021/01/01 02:30:05;;;;;;;57.07;34.37;;;;;;;0.61;85.69;98212.88;119238;1150;65217;-80
2021/01/01 02:32:32;;;;;;;59.27;34.93;;;;;;;0.59;85.61;98201.58;119286;1150;65249;-80
2021/01/01 02:34:59;;;;;;;61.93;36.07;;;;;;;0.63;85.33;98210.17;119115;1150;65497;-80
2021/01/01 02:37:26;;;;;;;63.37;37.37;;;;;;;0.67;85.35;98205.68;118832;1150;65117;-80
2021/01/01 02:39:53;;;;;;;64.67;38.43;;;;;;;0.65;85.73;98205.73;118660;1150;65115;-79
2021/01/01 02:42:19;;;;;;;63.70;38.03;;;;;;;0.61;85.24;98202.39;118784;1150;65101;-79
2021/01/01 02:44:47;;;;;;;59.65;37.30;;;;;;;0.59;85.14;98214.70;119245;1150;65120;-78
2021/01/01 02:47:15;;;;;;;67.10;38.47;;;;;;;0.57;85.07;98210.42;119287;1150;65559;-79
2021/01/01 02:49:43;;;;;;;57.47;36.23;;;;;;;0.55;85.62;98207.84;119271;1150;65174;-79
2021/01/01 02:52:10;;;;;;;66.77;37.40;;;;;;;0.54;85.84;98216.64;119265;1151;65168;-80
2021/01/01 02:54:36;;;;;;;56.70;32.70;;;;;;;0.50;85.38;98206.33;119234;1150;65123;-79
2021/01/01 02:57:03;;;;;;;66.70;38.43;;;;;;;0.41;85.56;98208.39;119269;1150;65223;-79
2021/01/01 02:59:29;;;;;;;66.65;40.20;;;;;;;0.46;85.98;98210.00;119268;1150;65133;-79
2021/01/01 03:01:56;;;;;;;63.47;38.70;;;;;;;0.50;85.96;98203.70;119247;1150;65223;-79
2021/01/01 03:04:22;;;;;;;67.13;38.73;;;;;;;0.51;85.62;98206.28;119232;1151;65168;-79
2021/01/01 03:06:49;;;;;;;63.30;37.80;;;;;;;0.51;86.04;98213.30;119006;1151;65751;-79
2021/01/01 03:09:15;;;;;;;63.97;37.97;;;;;;;0.52;85.74;98196.64;119241;1151;65126;-79
2021/01/01 03:11:42;;;;;;;70.60;38.40;;;;;;;0.49;85.86;98202.01;119010;1150;65480;-79
2021/01/01 03:14:08;;;;;;;75.13;40.90;;;;;;;0.47;85.97;98199.44;119234;1150;65528;-79
2021/01/01 03:16:34;;;;;;;71.57;39.00;;;;;;;0.42;85.54;98206.62;119028;1150;65184;-80
2021/01/01 03:19:01;;;;;;;66.47;38.27;;;;;;;0.37;85.19;98204.20;118913;1150;65111;-80
2021/01/01 03:21:27;;;;;;;65.30;39.00;;;;;;;0.37;85.63;98204.20;118537;1150;65166;-80
2021/01/01 03:23:54;;;;;;;65.60;37.60;;;;;;;0.40;85.43;98200.61;119245;1150;65121;-80
2021/01/01 03:26:20;;;;;;;57.70;36.83;;;;;;;0.41;86.08;98203.16;119274;1151;65124;-80
2021/01/01 03:28:47;;;;;;;58.17;34.87;;;;;;;0.43;85.42;98205.73;119005;1151;65152;-80
2021/01/01 03:31:13;;;;;;;60.75;35.50;;;;;;;0.43;85.36;98209.20;119268;1151;65108;-80
2021/01/01 03:33:40;;;;;;;56.10;35.20;;;;;;;0.46;85.65;98197.73;119273;1150;65216;-80
2021/01/01 03:36:06;;;;;;;58.95;34.70;;;;;;;0.43;85.65;98193.47;119231;1150;65129;-80
2021/01/01 03:38:33;;;;;;;65.60;36.37;;;;;;;0.40;85.25;98198.83;119226;1150;65201;-79
2021/01/01 03:40:59;;;;;;;62.30;35.70;;;;;;;0.43;86.00;98208.34;119233;1150;65105;-79
2021/01/01 03:43:26;;;;;;;58.70;33.47;;;;;;;0.45;85.35;98206.53;119058;1150;65207;-79
2021/01/01 03:45:53;;;;;;;57.85;33.90;;;;;;;0.45;85.47;98198.66;119248;1150;65150;-79
2021/01/01 03:48:20;;;;;;;61.80;35.00;;;;;;;0.46;85.44;98204.75;119250;1150;65156;-79
2021/01/01 03:50:47;;;;;;;61.80;33.73;;;;;;;0.42;85.37;98209.23;119246;1150;65134;-79
2021/01/01 03:53:13;;;;;;;65.95;38.30;;;;;;;0.38;85.42;98207.67;119054;1150;65145;-79
2021/01/01 03:55:40;;;;;;;69.10;38.15;;;;;;;0.36;85.31;98212.11;119048;1151;65137;-79
2021/01/01 03:58:06;;;;;;;61.23;36.53;;;;;;;0.35;85.20;98210.41;119258;1150;65124;-81
2021/01/01 04:00:33;;;;;;;58.83;34.93;;;;;;;0.35;85.92;98215.66;119088;1150;65106;-79
2021/01/01 04:02:59;;;;;;;62.27;35.63;;;;;;;0.37;86.01;98209.44;119224;1150;65214;-79
2021/01/01 04:05:26;;;;;;;64.75;36.45;;;;;;;0.36;85.01;98214.73;119095;1150;65056;-80
2021/01/01 04:07:52;;;;;;;66.23;37.20;;;;;;;0.33;85.69;98212.23;119266;1150;65121;-81
2021/01/01 04:10:19;;;;;;;62.97;35.90;;;;;;;0.36;85.80;98218.20;119239;1151;65135;-81
2021/01/01 04:12:45;;;;;;;60.73;35.77;;;;;;;0.40;85.88;98222.42;119039;1150;65108;-81
2021/01/01 04:15:12;;;;;;;61.70;34.80;;;;;;;0.46;85.59;98221.33;118982;1151;65544;-79
2021/01/01 04:17:38;;;;;;;60.30;35.35;;;;;;;0.47;85.75;98217.78;119108;1151;65060;-80
2021/01/01 04:20:06;;;;;;;64.37;37.63;;;;;;;0.53;85.68;98224.58;118677;1149;65114;-80
2021/01/01 04:22:32;;;;;;;69.25;38.80;;;;;;;0.54;85.39;98219.27;119189;1149;65123;-79
2021/01/01 04:24:58;;;;;;;64.40;36.70;;;;;;;0.48;85.62;98211.64;118461;1151;65158;-78
2021/01/01 04:27:25;;;;;;;63.47;35.73;;;;;;;0.44;85.46;98216.13;119016;1150;65219;-79
2021/01/01 04:29:51;;;;;;;76.73;45.80;;;;;;;0.43;85.41;98221.45;119259;1150;65216;-81
2021/01/01 04:32:18;;;;;;;64.77;38.27;;;;;;;0.41;85.59;98225.89;119220;1150;65126;-78
2021/01/01 04:34:44;;;;;;;56.60;33.17;;;;;;;0.41;85.50;98220.65;119268;1150;65171;-80
2021/01/01 04:37:11;;;;;;;56.67;34.43;;;;;;;0.44;85.64;98224.00;119239;1150;65087;-79
2021/01/01 04:39:37;;;;;;;51.60;31.43;;;;;;;0.50;85.38;98212.45;118918;1151;65134;-78
2021/01/01 04:42:05;;;;;;;61.60;35.80;;;;;;;0.56;85.66;98221.84;119235;1150;65097;-79
2021/01/01 04:44:32;;;;;;;57.37;35.13;;;;;;;0.55;85.32;98231.44;119253;1150;65225;-80
2021/01/01 04:47:04;;;;;;;60.43;33.23;;;;;;;0.53;85.75;98227.20;119243;1150;65118;-79
2021/01/01 04:49:31;;;;;;;61.63;34.10;;;;;;;0.51;84.93;98229.88;119019;1150;65210;-79
2021/01/01 04:52:02;;;;;;;54.27;32.47;;;;;;;0.52;85.34;98238.59;118819;1150;65175;-79
2021/01/01 04:54:33;;;;;;;59.50;33.47;;;;;;;0.55;85.74;98235.84;119184;1149;65182;-77
2021/01/01 04:57:00;;;;;;;66.65;34.70;;;;;;;0.55;85.33;98238.46;119311;1150;65095;-81
2021/01/01 04:59:27;;;;;;;64.07;37.67;;;;;;;0.56;85.27;98230.55;119161;1150;65074;-81
2021/01/01 05:01:54;;;;;;;67.00;36.40;;;;;;;0.57;85.04;98234.87;118696;1150;65057;-80
2021/01/01 05:04:20;;;;;;;68.23;36.83;;;;;;;0.53;85.33;98225.43;118692;1150;65601;-80
2021/01/01 05:06:46;;;;;;;69.23;37.67;;;;;;;0.49;84.85;98233.47;119173;1150;65106;-79
2021/01/01 05:09:13;;;;;;;70.43;36.83;;;;;;;0.43;85.15;98231.94;119311;1150;65124;-79
2021/01/01 05:11:40;;;;;;;64.10;36.60;;;;;;;0.42;84.82;98233.71;119240;1150;65577;-79
2021/01/01 05:14:08;;;;;;;67.20;37.90;;;;;;;0.39;85.49;98228.56;119029;1151;65147;-80
2021/01/01 05:16:35;;;;;;;68.63;38.37;;;;;;;0.35;84.74;98228.76;119265;1150;65097;-80
2021/01/01 05:19:13;;;;;;;67.77;38.57;;;;;;;0.34;85.16;98230.53;119253;1150;65094;-79
2021/01/01 05:21:40;;;;;;;69.60;37.05;;;;;;;0.34;85.46;98234.89;119264;1150;65117;-79
2021/01/01 05:24:07;;;;;;;68.93;37.90;;;;;;;0.38;85.48;98231.25;119217;1150;65121;-80
2021/01/01 05:26:34;;;;;;;67.47;37.17;;;;;;;0.37;85.34;98238.27;119076;1150;65204;-80
2021/01/01 05:29:10;;;;;;;60.97;34.60;;;;;;;0.38;85.67;98244.36;119075;1151;65481;-79
2021/01/01 05:31:41;;;;;;;65.37;36.60;;;;;;;0.41;85.78;98239.84;119242;1150;65135;-80
2021/01/01 05:34:10;;;;;;;68.60;37.43;;;;;;;0.43;85.47;98245.89;119066;1149;65207;-80
2021/01/01 05:36:41;;;;;;;71.33;38.03;;;;;;;0.44;85.76;98258.07;119018;1151;65082;-79
2021/01/01 05:39:22;;;;;;;70.13;39.07;;;;;;;0.44;85.46;98250.20;119211;1150;65143;-79
2021/01/01 05:41:53;;;;;;;75.30;39.67;;;;;;;0.45;85.43;98251.09;119223;1150;65311;-79
2021/01/01 05:44:27;;;;;;;67.30;36.50;;;;;;;0.46;85.79;98258.03;119293;1150;65060;-80
2021/01/01 05:46:56;;;;;;;64.35;36.30;;;;;;;0.49;85.23;98263.14;119231;1150;65124;-79
2021/01/01 05:49:25;;;;;;;63.23;36.23;;;;;;;0.51;85.77;98257.86;119226;1151;65129;-79
2021/01/01 05:52:08;;;;;;;62.07;35.43;;;;;;;0.54;85.23;98258.59;119249;1150;65094;-79
2021/01/01 05:54:36;;;;;;;69.60;39.07;;;;;;;0.48;85.08;98263.23;119208;1150;65163;-79
2021/01/01 05:57:04;;;;;;;70.13;37.13;;;;;;;0.41;85.58;98262.59;119159;1150;65117;-79
2021/01/01 05:59:35;;;;;;;67.20;38.00;;;;;;;0.40;85.11;98263.52;119252;1150;65114;-79
2021/01/01 06:02:03;;;;;;;64.05;36.80;;;;;;;0.39;84.98;98265.25;119285;1150;65121;-82
2021/01/01 06:04:29;;;;;;;63.57;37.17;;;;;;;0.36;85.77;98262.75;119133;1150;65156;-78
2021/01/01 06:06:59;;;;;;;61.43;35.33;;;;;;;0.34;85.27;98261.09;119129;1150;65193;-80
2021/01/01 06:09:28;;;;;;;66.47;40.00;;;;;;;0.35;85.75;98265.45;119140;1150;65554;-81
2021/01/01 06:12:11;;;;;;;61.83;33.10;;;;;;;0.30;84.92;98267.38;119267;1150;65123;-78
2021/01/01 06:14:43;;;;;;;61.67;33.00;;;;;;;0.25;85.28;98274.56;119182;1150;65121;-78
2021/01/01 06:17:15;;;;;;;56.53;31.87;;;;;;;0.20;85.45;98272.10;119268;1149;65101;-79
2021/01/01 06:19:46;;;;;;;61.23;34.77;;;;;;;0.13;84.88;98273.23;119220;1150;65612;-79
2021/01/01 06:22:18;;;;;;;64.30;35.70;;;;;;;0.11;85.40;98259.35;119185;1150;65456;-80
2021/01/01 06:24:56;;;;;;;66.63;36.40;;;;;;;0.12;85.85;98263.67;118819;1150;65117;-80
2021/01/01 06:27:25;;;;;;;66.20;36.50;;;;;;;0.12;85.96;98268.91;118762;1150;65111;-78
2021/01/01 06:30:02;;;;;;;62.35;34.83;;;;;;;0.13;85.28;98267.98;118698;1150;65065;-79
2021/01/01 06:32:32;;;;;;;56.70;31.70;;;;;;;0.12;85.81;98267.14;118558;1151;65198;-79
2021/01/01 06:35:28;;;;;;;60.07;32.37;;;;;;;0.08;85.06;98265.56;118675;1150;65181;-78
2021/01/01 06:37:56;;;;;;;65.73;34.03;;;;;;;0.04;85.94;98266.56;118686;1150;65227;-79
2021/01/01 06:40:22;;;;;;;73.87;41.10;;;;;;;-0.01;85.06;98264.11;119321;1150;65028;-79
2021/01/01 06:42:54;;;;;;;51.60;29.60;;;;;;;-0.07;85.72;98269.57;119203;1150;65168;-80
2021/01/01 06:45:29;;;;;;;67.70;37.60;;;;;;;-0.09;85.92;98268.77;119005;1150;65191;-81
2021/01/01 06:47:56;;;;;;;56.50;30.07;;;;;;;-0.11;85.62;98272.34;119301;1150;65145;-79
2021/01/01 06:50:31;;;;;;;68.70;38.20;;;;;;;-0.12;85.50;98276.73;119025;1150;65127;-80
2021/01/01 06:53:07;;;;;;;78.40;40.93;;;;;;;-0.08;85.52;98275.73;119276;1149;65223;-80
2021/01/01 06:55:40;;;;;;;70.10;37.13;;;;;;;-0.06;86.14;98273.89;119254;1150;65114;-79
2021/01/01 06:58:08;;;;;;;59.67;32.20;;;;;;;-0.06;85.49;98284.36;119201;1150;65148;-79
2021/01/01 07:00:50;;;;;;;63.83;37.07;;;;;;;-0.05;86.32;98277.39;118849;1150;65124;-79
2021/01/01 07:03:31;;;;;;;62.30;32.50;;;;;;;0.02;86.11;98276.23;119078;1150;65200;-79
2021/01/01 07:06:01;;;;;;;62.37;32.60;;;;;;;0.04;85.83;98268.34;119299;1150;65146;-79
2021/01/01 07:08:39;;;;;;;67.72;36.17;;;;;;;0.01;85.30;98271.07;119279;1151;65120;-79
2021/01/01 07:11:26;;;;;;;62.20;34.15;;;;;;;0.01;85.88;98277.16;119251;1151;65194;-80
2021/01/01 07:14:01;;;;;;;55.87;29.17;;;;;;;-0.04;85.89;98268.61;119246;1150;65162;-79
2021/01/01 07:16:33;;;;;;;49.90;27.93;;;;;;;-0.06;85.23;98267.80;119227;1150;65101;-78
2021/01/01 07:19:01;;;;;;;57.30;31.05;;;;;;;-0.05;85.53;98274.77;119085;1149;65120;-78
2021/01/01 07:21:28;;;;;;;60.60;31.40;;;;;;;-0.05;85.27;98269.53;119263;1151;65120;-79
2021/01/01 07:23:54;;;;;;;50.15;29.35;;;;;;;-0.03;85.81;98280.78;119015;1150;65079;-79
2021/01/01 07:26:26;;;;;;;50.65;27.00;;;;;;;0.00;86.02;98283.32;119051;1150;65163;-79
2021/01/01 07:28:55;;;;;;;48.50;27.57;;;;;;;0.08;85.74;98288.25;119089;1151;65129;-79
2021/01/01 07:31:22;;;;;;;48.97;26.57;;;;;;;0.14;85.97;98285.44;119089;1150;65155;-78
2021/01/01 07:33:49;;;;;;;51.37;29.53;;;;;;;0.23;86.16;98290.33;118741;1150;65213;-78
2021/01/01 07:36:16;;;;;;;62.60;32.67;;;;;;;0.31;85.83;98290.05;119047;1151;65153;-77
2021/01/01 07:38:47;;;;;;;65.35;34.60;;;;;;;0.26;85.05;98291.98;119304;1150;65164;-80
2021/01/01 07:41:17;;;;;;;61.67;34.00;;;;;;;0.19;85.05;98289.59;119102;1150;65217;-77
2021/01/01 07:43:44;;;;;;;58.17;31.57;;;;;;;0.17;85.48;98291.41;119308;1149;65101;-77
2021/01/01 07:46:11;;;;;;;57.43;30.97;;;;;;;0.13;85.32;98283.70;119274;1150;65120;-78
2021/01/01 07:48:38;;;;;;;57.07;31.23;;;;;;;0.09;85.06;98285.59;119035;1150;65187;-78
2021/01/01 07:51:09;;;;;;;58.20;32.50;;;;;;;0.08;85.66;98288.25;119230;1150;65124;-76
2021/01/01 07:53:37;;;;;;;63.10;32.63;;;;;;;0.13;85.20;98295.06;119131;1151;65117;-77
2021/01/01 07:56:07;;;;;;;59.93;29.90;;;;;;;0.19;85.75;98299.23;118851;1150;65104;-78
2021/01/01 07:58:35;;;;;;;60.23;32.38;;;;;;;0.26;85.80;98302.46;119280;1149;65200;-80
2021/01/01 08:01:07;;;;;;;57.47;32.33;;;;;;;0.30;85.31;98301.45;119263;1150;65195;-79
2021/01/01 08:03:36;;;;;;;56.43;31.70;;;;;;;0.34;85.50;98292.55;119299;1150;65152;-79
2021/01/01 08:06:05;;;;;;;62.57;32.83;;;;;;;0.35;84.90;98295.13;119284;1150;65118;-80
2021/01/01 08:08:32;;;;;;;62.05;33.40;;;;;;;0.35;85.08;98297.75;119285;1150;65128;-78
2021/01/01 08:10:59;;;;;;;64.97;36.03;;;;;;;0.32;85.38;98299.64;119251;1150;65202;-78
2021/01/01 08:13:31;;;;;;;64.33;36.00;;;;;;;0.31;85.45;98292.66;119034;1151;65265;-78
2021/01/01 08:16:09;;;;;;;59.10;33.93;;;;;;;0.34;85.20;98298.67;119312;1150;65128;-78
2021/01/01 08:18:36;;;;;;;60.93;37.30;;;;;;;0.36;84.83;98301.22;119262;1150;65149;-78
2021/01/01 08:21:04;;;;;;;55.65;32.30;;;;;;;0.36;85.17;98301.22;119028;1150;65114;-78
2021/01/01 08:23:43;;;;;;;63.53;35.20;;;;;;;0.37;84.49;98305.53;119300;1150;65129;-78
2021/01/01 08:26:10;;;;;;;62.80;33.60;;;;;;;0.31;84.48;98304.00;119280;1150;65166;-80
2021/01/01 08:28:39;;;;;;;66.70;35.55;;;;;;;0.37;85.12;98313.39;119306;1150;65191;-78
2021/01/01 08:31:07;;;;;;;59.43;34.03;;;;;;;0.46;85.16;98309.61;119216;1150;65111;-78
2021/01/01 08:33:37;;;;;;;60.73;34.30;;;;;;;0.57;85.35;98307.43;119287;1150;65197;-78
2021/01/01 08:36:07;;;;;;;60.03;34.47;;;;;;;0.64;85.36;98312.38;119272;1150;65095;-79
2021/01/01 08:38:35;;;;;;;56.95;33.45;;;;;;;0.76;85.05;98315.45;119289;1150;65055;-79
2021/01/01 08:41:02;;;;;;;55.73;33.17;;;;;;;0.81;84.80;98316.98;118964;1150;65306;-79
2021/01/01 08:43:29;;;;;;;50.53;30.13;;;;;;;0.79;84.09;98308.34;119048;1150;65140;-77
2021/01/01 08:45:57;;;;;;;44.55;29.60;;;;;;;0.78;84.15;98303.98;119263;1150;65107;-78
2021/01/01 08:48:30;;;;;;;49.00;31.10;;;;;;;0.80;84.34;98307.41;119040;1150;65227;-78
2021/01/01 08:50:56;;;;;;;47.50;29.93;;;;;;;0.86;84.45;98309.78;119129;1150;65592;-77
2021/01/01 08:53:23;;;;;;;49.20;30.67;;;;;;;0.87;84.49;98315.91;118514;1150;65172;-78
2021/01/01 08:55:58;;;;;;;49.87;31.77;;;;;;;0.92;83.88;98319.18;118663;1150;65128;-79
2021/01/01 08:58:25;;;;;;;47.90;30.30;;;;;;;0.93;84.01;98320.91;119254;1150;65262;-79
2021/01/01 09:00:52;;;;;;;52.13;31.17;;;;;;;0.87;83.95;98315.91;119027;1150;65149;-78
2021/01/01 09:03:23;;;;;;;51.80;31.20;;;;;;;0.77;83.65;98307.53;118896;1150;65189;-78
2021/01/01 09:05:54;;;;;;;53.40;32.30;;;;;;;0.75;83.92;98309.35;118682;1150;65134;-79
2021/01/01 09:08:22;;;;;;;49.80;30.65;;;;;;;0.80;84.13;98311.81;118673;1149;65149;-78
2021/01/01 09:10:52;;;;;;;53.83;34.33;;;;;;;0.91;83.85;98309.61;119162;1151;65146;-77
2021/01/01 09:13:26;;;;;;;57.27;34.83;;;;;;;1.00;83.78;98313.64;119081;1150;65143;-78
2021/01/01 09:16:05;;;;;;;50.70;31.80;;;;;;;1.00;83.67;98317.14;119217;1150;65194;-77
2021/01/01 09:18:31;;;;;;;50.53;32.13;;;;;;;1.05;83.89;98317.82;119299;1150;65111;-83
2021/01/01 09:21:13;;;;;;;47.33;29.83;;;;;;;1.10;83.57;98322.86;119381;1150;65108;-82
2021/01/01 09:23:41;;;;;;;47.87;29.73;;;;;;;1.01;83.26;98325.86;119312;1151;65152;-83
2021/01/01 09:26:08;;;;;;;55.70;31.47;;;;;;;0.97;83.14;98316.39;119304;1150;65137;-82
2021/01/01 09:28:36;;;;;;;50.00;31.47;;;;;;;0.99;83.08;98319.81;119259;1150;65271;-83
2021/01/01 09:31:03;;;;;;;42.70;26.85;;;;;;;1.03;83.25;98321.41;119092;1151;65132;-81
2021/01/01 09:33:29;;;;;;;43.75;27.45;;;;;;;1.05;82.87;98327.44;119315;1151;65143;-82
2021/01/01 09:35:56;;;;;;;42.83;28.63;;;;;;;1.04;82.93;98323.95;119360;1150;65442;-83
2021/01/01 09:38:23;;;;;;;48.13;29.53;;;;;;;1.12;82.79;98330.69;118887;1151;65172;-82
2021/01/01 09:40:50;;;;;;;46.60;29.07;;;;;;;1.22;83.21;98338.13;118835;1150;65154;-82
2021/01/01 09:43:16;;;;;;;47.90;32.07;;;;;;;1.34;82.67;98330.67;119262;1150;65108;-81
2021/01/01 09:45:42;;;;;;;44.03;29.97;;;;;;;1.49;82.93;98332.69;119244;1150;65123;-82
2021/01/01 09:48:09;;;;;;;43.70;29.87;;;;;;;1.60;82.89;98327.83;119298;1150;65063;-80
2021/01/01 09:50:35;;;;;;;48.15;31.05;;;;;;;1.71;81.90;98330.02;119037;1150;65146;-81
2021/01/01 09:53:02;;;;;;;47.77;31.67;;;;;;;1.75;81.91;98326.35;119280;1150;65195;-81
2021/01/01 09:55:29;;;;;;;45.80;30.43;;;;;;;1.73;82.08;98326.41;119203;1151;65111;-81
2021/01/01 09:57:55;;;;;;;45.93;30.27;;;;;;;1.78;81.82;98330.63;119205;1149;65041;-79
2021/01/01 10:00:22;;;;;;;48.03;30.43;;;;;;;1.76;81.52;98325.42;118679;1150;65121;-82
2021/01/01 10:02:49;;;;;;;46.40;30.37;;;;;;;1.69;81.68;98318.74;118924;1150;65060;-80
2021/01/01 10:05:15;;;;;;;48.47;31.00;;;;;;;1.61;81.10;98313.81;119210;1150;65249;-80
2021/01/01 10:07:42;;;;;;;46.23;30.30;;;;;;;1.44;81.11;98319.73;119314;1149;65172;-80
2021/01/01 10:10:10;;;;;;;45.87;29.87;;;;;;;1.34;81.73;98317.55;119350;1150;65162;-80
2021/01/01 10:12:36;;;;;;;45.40;30.27;;;;;;;1.25;81.23;98321.41;119328;1151;65044;-80
2021/01/01 10:15:04;;;;;;;48.83;31.83;;;;;;;1.23;81.80;98324.08;119060;1151;65161;-80
2021/01/01 10:17:31;;;;;;;50.30;31.90;;;;;;;1.30;81.91;98317.67;119020;1151;65199;-81
2021/01/01 10:19:57;;;;;;;49.80;31.27;;;;;;;1.42;82.14;98318.09;119334;1150;65120;-80
2021/01/01 10:22:24;;;;;;;50.80;34.30;;;;;;;1.58;82.22;98307.81;119059;1151;65278;-79
2021/01/01 10:24:50;;;;;;;55.33;33.87;;;;;;;1.63;81.71;98308.47;118904;1150;65105;-81
2021/01/01 10:27:17;;;;;;;55.17;34.10;;;;;;;1.72;81.98;98308.10;118772;1151;65137;-82
2021/01/01 10:29:44;;;;;;;57.10;35.23;;;;;;;1.83;81.61;98305.02;119072;1151;65207;-80
2021/01/01 10:32:13;;;;;;;54.50;34.70;;;;;;;1.89;81.19;98294.23;119042;1151;65124;-80
2021/01/01 10:34:40;;;;;;;50.83;33.63;;;;;;;1.86;80.65;98297.00;119075;1151;65219;-80
2021/01/01 10:37:06;;;;;;;49.73;31.73;;;;;;;1.77;81.34;98300.03;119254;1150;65095;-80
2021/01/01 10:39:33;;;;;;;53.43;32.83;;;;;;;1.77;81.64;98300.03;119016;1151;65118;-82
2021/01/01 10:41:59;;;;;;;49.77;31.83;;;;;;;1.72;81.38;98287.94;119297;1151;65165;-80
2021/01/01 10:44:26;;;;;;;52.17;32.23;;;;;;;1.67;81.18;98291.68;119245;1150;65137;-80
2021/01/01 10:46:52;;;;;;;53.97;32.33;;;;;;;1.70;81.17;98288.92;119261;1150;65069;-79
2021/01/01 10:49:23;;;;;;;52.37;33.87;;;;;;;1.73;81.45;98296.66;119120;1150;65124;-82
2021/01/01 10:51:50;;;;;;;47.13;30.17;;;;;;;1.77;81.89;98285.13;119355;1150;65060;-80
2021/01/01 10:54:17;;;;;;;47.65;31.60;;;;;;;1.82;81.42;98279.64;119245;1150;65449;-83
2021/01/01 10:56:46;;;;;;;53.17;33.87;;;;;;;1.91;81.29;98277.48;119320;1150;65653;-81
2021/01/01 10:59:13;;;;;;;43.45;28.83;;;;;;;2.01;81.52;98269.22;119161;1151;65306;-81
2021/01/01 11:01:40;;;;;;;47.67;29.50;;;;;;;1.99;81.04;98271.90;119325;1150;65519;-79
2021/01/01 11:04:06;;;;;;;55.63;32.40;;;;;;;1.96;81.10;98264.16;119065;1149;65073;-80
2021/01/01 11:06:39;;;;;;;53.05;32.25;;;;;;;1.80;80.44;98261.34;119276;1150;65094;-82
2021/01/01 11:09:07;;;;;;;52.37;32.00;;;;;;;1.73;81.07;98258.11;119139;1151;66370;-79
2021/01/01 11:11:33;;;;;;;50.50;31.40;;;;;;;1.72;80.75;98264.30;119241;1151;65129;-80
2021/01/01 12:25:59;;;;;;;69.13;39.50;;;;;;;1.99;80.98;98295.55;119309;1150;65093;-83
2021/01/01 12:28:26;;;;;;;65.23;38.97;;;;;;;1.94;81.39;98289.64;119159;1151;65223;-81
2021/01/01 12:30:57;;;;;;;66.43;39.50;;;;;;;1.96;81.78;98300.94;119310;1150;65127;-80
2021/01/01 12:33:23;;;;;;;73.70;40.87;;;;;;;2.04;81.71;98303.23;119038;1151;65604;-81
2021/01/01 12:35:50;;;;;;;73.50;40.70;;;;;;;2.08;82.15;98307.42;119133;1151;65226;-81